createdAt,value
2019-01-20T00:03:32.476Z,-1.80
2019-01-20T00:08:37.924Z,-1.90
2019-01-20T00:13:42.979Z,-1.90
2019-01-20T00:18:53.465Z,-1.90
2019-01-20T00:23:58.500Z,-2.00
2019-01-20T00:29:03.498Z,-2.00
2019-01-20T00:34:11.444Z,-2.00
2019-01-20T00:39:16.192Z,-2.10
2019-01-20T00:44:23.335Z,-2.20
2019-01-20T00:49:29.034Z,-2.20
2019-01-20T00:54:33.821Z,-2.20
2019-01-20T00:59:39.145Z,-2.20
2019-01-20T01:04:44.133Z,-2.20
2019-01-20T01:09:50.933Z,-2.20
2019-01-20T01:14:55.930Z,-2.20
2019-01-20T01:20:00.658Z,-2.30
2019-01-20T01:25:06.757Z,-2.30
2019-01-20T01:30:14.775Z,-2.30
2019-01-20T01:35:19.699Z,-2.30
2019-01-20T01:40:24.679Z,-2.30
2019-01-20T01:45:29.469Z,-2.30
2019-01-20T01:50:34.640Z,-2.30
2019-01-20T01:55:40.796Z,-2.40
2019-01-20T02:00:45.552Z,-2.40
2019-01-20T02:05:50.655Z,-2.40
2019-01-20T02:10:55.521Z,-2.40
2019-01-20T02:16:00.365Z,-2.50
2019-01-20T02:21:05.349Z,-2.40
2019-01-20T02:26:10.279Z,-2.50
2019-01-20T02:31:15.213Z,-2.40
2019-01-20T02:36:20.309Z,-2.40
2019-01-20T02:41:25.689Z,-2.40
2019-01-20T02:46:30.719Z,-2.50
2019-01-20T02:51:36.622Z,-2.50
2019-01-20T02:56:41.621Z,-2.60
2019-01-20T03:01:46.785Z,-2.60
2019-01-20T03:06:51.552Z,-2.60
2019-01-20T03:12:03.499Z,-2.70
2019-01-20T03:17:03.193Z,-2.70
2019-01-20T03:22:08.004Z,-2.80
2019-01-20T03:27:12.778Z,-2.80
2019-01-20T03:32:17.591Z,-2.90
2019-01-20T03:37:22.665Z,-2.80
2019-01-20T03:42:27.686Z,-2.80
2019-01-20T03:47:32.546Z,-2.90
2019-01-20T03:52:37.353Z,-2.80
2019-01-20T03:57:42.518Z,-2.80
2019-01-20T04:02:51.054Z,-2.90
2019-01-20T04:07:56.070Z,-2.90
2019-01-20T04:13:00.815Z,-2.90
2019-01-20T04:18:05.671Z,-3.00
2019-01-20T04:23:10.386Z,-3.00
2019-01-20T04:28:15.104Z,-3.00
2019-01-20T04:33:20.112Z,-3.10
2019-01-20T04:38:24.846Z,-3.20
2019-01-20T04:43:29.779Z,-3.10
2019-01-20T04:48:34.562Z,-3.20
2019-01-20T04:53:39.762Z,-3.20
2019-01-20T04:58:44.833Z,-3.20
2019-01-20T05:03:49.671Z,-3.20
2019-01-20T05:08:54.397Z,-3.20
2019-01-20T05:13:59.201Z,-3.30
2019-01-20T05:19:03.933Z,-3.30
2019-01-20T05:24:08.659Z,-3.40
2019-01-20T05:29:13.481Z,-3.40
2019-01-20T05:34:18.232Z,-3.40
2019-01-20T05:39:23.008Z,-3.50
2019-01-20T05:44:28.232Z,-3.50
2019-01-20T05:49:32.981Z,-3.40
2019-01-20T05:54:38.023Z,-3.50
2019-01-20T05:59:45.207Z,-3.50
2019-01-20T06:04:50.329Z,-3.50
2019-01-20T06:09:55.081Z,-3.50
2019-01-20T06:15:00.283Z,-3.50
2019-01-20T06:20:06.187Z,-3.60
2019-01-20T06:25:11.282Z,-3.60
2019-01-20T06:30:27.365Z,-3.60
2019-01-20T06:35:32.487Z,-3.70
2019-01-20T06:40:37.213Z,-3.70
2019-01-20T06:45:42.294Z,-3.70
2019-01-20T06:50:47.009Z,-3.70
2019-01-20T06:55:51.757Z,-3.80
2019-01-20T07:00:56.600Z,-3.80
2019-01-20T07:06:01.709Z,-3.80
2019-01-20T07:11:06.643Z,-3.80
2019-01-20T07:16:11.477Z,-3.80
2019-01-20T07:21:16.275Z,-3.80
2019-01-20T07:26:21.082Z,-3.80
2019-01-20T07:31:25.822Z,-3.80
2019-01-20T07:36:30.673Z,-3.80
2019-01-20T07:41:35.771Z,-3.80
2019-01-20T07:46:40.691Z,-3.80
2019-01-20T07:51:45.485Z,-3.90
2019-01-20T07:56:50.209Z,-3.80
2019-01-20T08:01:55.017Z,-3.80
2019-01-20T08:06:59.769Z,-3.80
2019-01-20T08:12:04.677Z,-3.80
2019-01-20T08:17:09.596Z,-3.80
2019-01-20T08:22:14.289Z,-3.80
2019-01-20T08:27:19.533Z,-3.60
2019-01-20T08:32:24.287Z,-3.50
2019-01-20T08:37:29.103Z,-3.40
2019-01-20T08:42:34.197Z,-3.30
2019-01-20T08:48:01.320Z,-3.20
2019-01-20T08:53:06.377Z,-3.00
2019-01-20T08:58:11.093Z,-2.80
2019-01-20T09:03:15.820Z,-2.70
2019-01-20T09:08:20.646Z,-2.60
2019-01-20T09:13:25.423Z,-2.50
2019-01-20T09:18:30.276Z,-2.50
2019-01-20T09:23:35.202Z,-2.40
2019-01-20T09:28:39.952Z,-2.30
2019-01-20T09:33:45.069Z,-2.20
2019-01-20T09:38:49.973Z,-2.10
2019-01-20T09:43:54.770Z,-1.90
2019-01-20T09:48:59.613Z,-1.80
2019-01-20T09:54:04.704Z,-1.70
2019-01-20T09:59:09.853Z,-1.60
2019-01-20T10:04:14.853Z,-1.40
2019-01-20T10:09:19.749Z,-1.30
2019-01-20T10:14:24.766Z,-1.10
2019-01-20T10:19:29.830Z,-1.00
2019-01-20T10:24:34.769Z,-0.80
2019-01-20T10:29:40.229Z,-0.70
2019-01-20T10:34:45.185Z,-0.60
2019-01-20T10:39:51.267Z,-0.40
2019-01-20T10:44:56.154Z,-0.30
2019-01-20T10:50:01.173Z,-0.10
2019-01-20T10:55:06.911Z,0.00
2019-01-20T11:00:16.317Z,0.20
2019-01-20T11:05:24.841Z,0.30
2019-01-20T11:10:27.948Z,0.50
2019-01-20T11:15:33.028Z,0.60
2019-01-20T11:20:38.151Z,0.80
2019-01-20T11:25:43.971Z,0.90
2019-01-20T11:30:49.554Z,1.00
2019-01-20T11:35:54.401Z,1.20
2019-01-20T11:40:59.313Z,1.30
2019-01-20T11:46:05.318Z,1.40
2019-01-20T11:51:10.323Z,1.50
2019-01-20T11:56:19.730Z,1.60
2019-01-20T12:01:24.944Z,1.70
2019-01-20T12:06:32.866Z,1.80
2019-01-20T12:11:38.008Z,1.90
2019-01-20T12:16:43.215Z,2.00
2019-01-20T12:21:48.594Z,2.10
2019-01-20T12:26:53.703Z,2.10
2019-01-20T12:31:58.781Z,2.20
2019-01-20T12:37:03.946Z,2.20
2019-01-20T12:42:09.020Z,2.30
2019-01-20T12:47:14.460Z,2.40
2019-01-20T12:52:19.583Z,2.40
2019-01-20T12:57:25.114Z,2.40
2019-01-20T13:02:30.192Z,2.50
2019-01-20T13:07:35.136Z,2.50
2019-01-20T13:12:40.701Z,2.60
2019-01-20T13:17:46.063Z,2.60
2019-01-20T13:22:54.305Z,2.70
2019-01-20T13:27:59.417Z,2.80
2019-01-20T13:33:04.489Z,2.80
2019-01-20T13:38:12.230Z,2.90
2019-01-20T13:43:17.970Z,3.00
2019-01-20T13:48:23.247Z,3.10
2019-01-20T13:53:28.324Z,3.20
2019-01-20T13:58:33.347Z,3.30
2019-01-20T14:03:38.652Z,3.40
2019-01-20T14:08:44.362Z,3.60
2019-01-20T14:13:49.618Z,3.70
2019-01-20T14:18:54.859Z,3.80
2019-01-20T14:24:00.207Z,3.90
2019-01-20T14:29:05.213Z,4.00
2019-01-20T14:34:10.332Z,4.10
2019-01-20T14:39:15.295Z,4.10
2019-01-20T14:44:20.423Z,4.20
2019-01-20T14:49:25.389Z,4.20
2019-01-20T14:54:30.419Z,4.30
2019-01-20T14:59:35.281Z,4.40
2019-01-20T15:04:40.522Z,4.30
2019-01-20T15:09:45.762Z,4.40
2019-01-20T15:14:50.732Z,4.40
2019-01-20T15:19:55.760Z,4.30
2019-01-20T15:25:00.779Z,4.20
2019-01-20T15:30:09.807Z,4.20
2019-01-20T15:35:14.889Z,4.10
2019-01-20T15:40:20.034Z,4.10
2019-01-20T15:45:25.101Z,4.00
2019-01-20T15:50:31.382Z,3.90
2019-01-20T15:55:36.811Z,3.90
2019-01-20T16:06:12.624Z,3.60
2019-01-20T16:11:17.489Z,3.50
2019-01-20T16:16:22.371Z,3.40
2019-01-20T16:21:27.661Z,3.20
2019-01-20T16:26:32.722Z,3.10
2019-01-20T16:31:39.936Z,3.00
2019-01-20T16:36:44.342Z,2.90
2019-01-20T16:41:49.679Z,2.80
2019-01-20T16:46:54.698Z,2.70
2019-01-20T16:52:00.438Z,2.60
2019-01-20T16:57:05.457Z,2.50
2019-01-20T17:02:10.407Z,2.40
2019-01-20T17:07:16.188Z,2.20
2019-01-20T17:12:22.786Z,2.00
2019-01-20T17:17:28.946Z,1.90
2019-01-20T17:22:33.908Z,1.70
2019-01-20T17:27:40.788Z,1.50
2019-01-20T17:32:47.165Z,1.30
2019-01-20T17:37:52.168Z,1.20
2019-01-20T17:42:58.059Z,1.20
2019-01-20T17:48:03.298Z,1.10
2019-01-20T17:53:09.851Z,1.10
2019-01-20T17:58:14.927Z,1.00
2019-01-20T18:03:20.143Z,1.00
2019-01-20T18:08:29.331Z,0.90
2019-01-20T18:13:34.486Z,0.90
2019-01-20T18:18:39.669Z,0.90
2019-01-20T18:23:44.987Z,0.80
2019-01-20T18:28:49.954Z,0.70
2019-01-20T18:33:55.165Z,0.70
2019-01-20T18:39:00.187Z,0.60
2019-01-20T18:44:05.584Z,0.50
2019-01-20T18:49:14.815Z,0.50
2019-01-20T18:54:20.111Z,0.40
2019-01-20T18:59:25.301Z,0.40
2019-01-20T19:04:30.595Z,0.30
2019-01-20T19:09:36.052Z,0.20
2019-01-20T19:14:41.446Z,0.20
2019-01-20T19:19:46.323Z,0.10
2019-01-20T19:24:51.811Z,0.10
2019-01-20T19:30:01.466Z,0.00
2019-01-20T19:35:08.406Z,-0.10
2019-01-20T19:40:15.381Z,-0.20
2019-01-20T19:45:20.644Z,-0.20
2019-01-20T19:50:27.319Z,-0.30
2019-01-20T19:55:34.032Z,-0.30
2019-01-20T20:00:39.222Z,-0.40
2019-01-20T20:06:18.975Z,-0.50
2019-01-20T20:11:23.822Z,-0.50
2019-01-20T20:16:31.822Z,-0.60
2019-01-20T20:21:38.065Z,-0.70
2019-01-20T20:26:43.267Z,-0.80
2019-01-20T20:31:50.175Z,-0.80
2019-01-20T20:36:56.677Z,-0.90
2019-01-20T20:42:04.262Z,-1.00
2019-01-20T20:47:09.470Z,-1.00
2019-01-20T20:52:14.291Z,-1.10
2019-01-20T20:57:19.290Z,-1.20
2019-01-20T21:02:24.049Z,-1.20
2019-01-20T21:07:30.479Z,-1.30
2019-01-20T21:12:35.354Z,-1.40
2019-01-20T21:17:40.403Z,-1.40
2019-01-20T21:22:47.106Z,-1.40
2019-01-20T21:27:52.102Z,-1.50
2019-01-20T21:32:56.999Z,-1.50
2019-01-20T21:38:06.859Z,-1.50
2019-01-20T21:43:12.101Z,-1.60
2019-01-20T21:48:20.318Z,-1.70
2019-01-20T21:53:25.155Z,-1.70
2019-01-20T21:58:31.341Z,-1.80
2019-01-20T22:03:38.204Z,-1.80
2019-01-20T22:08:43.085Z,-1.80
2019-01-20T22:13:47.997Z,-1.90
2019-01-20T22:18:53.026Z,-1.90
2019-01-20T22:23:59.535Z,-1.90
2019-01-20T22:29:04.677Z,-1.90
2019-01-20T22:34:09.759Z,-2.00
2019-01-20T22:39:14.887Z,-2.00
2019-01-20T22:44:19.903Z,-2.00
2019-01-20T22:49:24.822Z,-2.10
2019-01-20T22:54:29.701Z,-2.10
2019-01-20T22:59:34.712Z,-2.20
2019-01-20T23:04:39.585Z,-2.20
2019-01-20T23:09:44.604Z,-2.30
2019-01-20T23:14:49.381Z,-2.30
2019-01-20T23:19:54.129Z,-2.40
2019-01-20T23:24:58.971Z,-2.40
2019-01-20T23:30:05.257Z,-2.40
2019-01-20T23:35:10.410Z,-2.50
2019-01-20T23:40:15.339Z,-2.60
2019-01-20T23:45:20.365Z,-2.60
2019-01-20T23:50:25.550Z,-2.60
2019-01-20T23:55:30.424Z,-2.70
